Time;durP1;ratioP1;P1;durP2;ratioP2;P2;SDS_P1;SDS_P2;PMS_P1;PMS_P2;Temp;Humidity;BMP_temperature;BMP_pressure;BME280_temperature;BME280_humidity;BME280_pressure;Samples;Min_cycle;Max_cycle;Signal;HPM_P1;HPM_P2
2023/04/20 00:00:28;;;;;;;8.13;6.70;;;7.00;99.90;;;;;;4975393;28;20199;-78
2023/04/20 00:02:54;;;;;;;8.57;6.93;;;6.90;99.90;;;;;;4968608;28;20224;-74
2023/04/20 00:05:20;;;;;;;7.30;6.30;;;6.90;99.90;;;;;;4968134;28;20279;-78
2023/04/20 00:07:47;;;;;;;7.70;6.73;;;7.00;99.90;;;;;;4969546;28;20204;-74
2023/04/20 00:10:12;;;;;;;8.43;6.87;;;6.90;99.90;;;;;;4978109;28;20197;-78
2023/04/20 00:12:38;;;;;;;10.07;6.63;;;6.90;99.90;;;;;;4978286;28;20217;-75
2023/04/20 00:15:04;;;;;;;10.27;7.27;;;6.90;99.90;;;;;;4980412;28;20224;-76
2023/04/20 00:17:30;;;;;;;10.37;7.60;;;6.90;99.90;;;;;;4982044;28;20192;-77
2023/04/20 00:19:55;;;;;;;9.70;7.20;;;6.90;99.90;;;;;;4954138;28;20733;-77
2023/04/20 00:22:21;;;;;;;6.90;6.00;;;7.00;99.90;;;;;;4968189;28;20281;-74
2023/04/20 00:24:46;;;;;;;8.83;6.70;;;6.90;99.90;;;;;;4966241;28;20316;-75
2023/04/20 00:27:12;;;;;;;6.03;5.43;;;6.90;99.90;;;;;;4967755;28;20244;-72
2023/04/20 00:29:37;;;;;;;7.93;6.53;;;6.90;99.90;;;;;;4969123;28;20197;-73
2023/04/20 00:32:03;;;;;;;6.33;5.73;;;6.90;99.90;;;;;;4966005;28;20297;-74
2023/04/20 00:34:29;;;;;;;7.83;6.20;;;6.90;99.90;;;;;;4973352;28;20264;-78
2023/04/20 00:36:54;;;;;;;8.07;7.27;;;7.00;99.90;;;;;;4979002;28;20216;-77
2023/04/20 00:39:20;;;;;;;8.10;6.67;;;6.90;99.90;;;;;;4979029;28;20192;-75
2023/04/20 00:41:45;;;;;;;6.07;5.47;;;7.00;99.90;;;;;;4979690;28;20281;-77
2023/04/20 00:44:12;;;;;;;7.73;5.17;;;6.90;99.90;;;;;;4978025;28;20200;-77
2023/04/20 00:46:38;;;;;;;6.80;5.57;;;6.90;99.90;;;;;;4977356;28;20217;-77
2023/04/20 00:49:05;;;;;;;5.97;5.33;;;6.90;99.90;;;;;;4978846;28;20220;-76
2023/04/20 00:51:31;;;;;;;5.97;5.47;;;7.00;99.90;;;;;;4979009;28;20590;-77
2023/04/20 00:53:57;;;;;;;6.53;5.90;;;7.00;99.90;;;;;;4978958;28;20201;-78
2023/04/20 00:56:22;;;;;;;5.80;4.80;;;7.00;99.90;;;;;;4978643;28;20208;-77
2023/04/20 00:58:48;;;;;;;6.43;5.80;;;7.00;99.90;;;;;;4976893;28;20291;-77
2023/04/20 01:01:16;;;;;;;7.13;5.87;;;7.00;99.90;;;;;;4978694;28;20960;-77
2023/04/20 01:03:42;;;;;;;6.37;5.40;;;7.00;99.90;;;;;;4978841;28;20201;-77
2023/04/20 01:06:08;;;;;;;5.63;5.13;;;7.00;99.90;;;;;;4966154;28;20201;-79
2023/04/20 01:08:34;;;;;;;5.37;4.87;;;7.00;99.90;;;;;;4968511;28;20679;-78
2023/04/20 01:10:59;;;;;;;6.83;5.53;;;7.00;99.90;;;;;;4976621;28;20275;-77
2023/04/20 01:13:25;;;;;;;5.67;4.90;;;7.10;99.90;;;;;;4968181;28;20696;-76
2023/04/20 01:15:51;;;;;;;8.00;6.80;;;7.10;99.90;;;;;;4969134;28;20213;-75
2023/04/20 01:18:19;;;;;;;6.13;5.53;;;7.10;99.90;;;;;;4971915;28;20570;-78
2023/04/20 01:20:48;;;;;;;6.07;5.57;;;7.10;99.90;;;;;;4965109;28;20201;-77
2023/04/20 01:23:13;;;;;;;8.63;5.77;;;7.10;99.90;;;;;;4976651;28;20251;-78
2023/04/20 01:25:40;;;;;;;7.33;6.03;;;7.10;99.90;;;;;;4978158;28;20209;-78
2023/04/20 01:28:06;;;;;;;7.20;6.50;;;7.10;99.90;;;;;;4966398;28;21605;-75
2023/04/20 01:30:31;;;;;;;7.90;6.00;;;7.10;99.90;;;;;;4968259;28;20209;-76
2023/04/20 01:32:56;;;;;;;8.10;6.30;;;7.10;99.90;;;;;;4968786;28;20229;-76
2023/04/20 01:35:22;;;;;;;7.63;6.40;;;7.10;99.90;;;;;;4966662;28;20206;-75
2023/04/20 01:37:47;;;;;;;6.33;5.37;;;7.00;99.90;;;;;;4968489;28;20217;-76
2023/04/20 01:40:13;;;;;;;5.87;5.37;;;7.00;99.90;;;;;;4968226;28;20221;-79
2023/04/20 01:42:39;;;;;;;6.37;5.73;;;6.90;99.90;;;;;;4968419;28;20251;-77
2023/04/20 01:45:05;;;;;;;8.97;6.57;;;6.90;99.90;;;;;;4970016;28;20211;-76
2023/04/20 01:47:31;;;;;;;6.53;5.50;;;6.80;99.90;;;;;;4967571;28;20203;-74
2023/04/20 01:49:57;;;;;;;7.87;7.07;;;6.80;99.90;;;;;;4968312;28;20197;-74
2023/04/20 01:52:22;;;;;;;7.53;6.53;;;6.80;99.90;;;;;;4967003;28;20197;-75
2023/04/20 01:54:47;;;;;;;5.53;5.00;;;6.80;99.90;;;;;;4967740;28;20660;-74
2023/04/20 01:57:13;;;;;;;8.23;7.00;;;6.90;99.90;;;;;;4950099;28;20221;-77
2023/04/20 01:59:39;;;;;;;7.70;7.00;;;6.90;99.90;;;;;;4967638;28;20201;-76
2023/04/20 02:02:04;;;;;;;7.03;6.30;;;6.90;99.90;;;;;;4967685;28;20340;-75
2023/04/20 02:04:30;;;;;;;8.70;6.57;;;6.90;99.90;;;;;;4965761;28;20209;-75
2023/04/20 02:06:55;;;;;;;8.60;6.57;;;6.80;99.90;;;;;;4972633;28;20208;-75
2023/04/20 02:09:21;;;;;;;8.03;6.93;;;6.80;99.90;;;;;;4967916;28;20463;-74
2023/04/20 02:11:46;;;;;;;7.00;6.33;;;6.90;99.90;;;;;;4968325;28;20675;-75
2023/04/20 02:14:11;;;;;;;9.33;6.83;;;6.80;99.90;;;;;;4967884;28;20200;-75
2023/04/20 02:16:37;;;;;;;7.10;6.40;;;6.80;99.90;;;;;;4967377;28;20248;-76
2023/04/20 02:19:02;;;;;;;10.07;7.40;;;6.80;99.90;;;;;;4965403;28;20209;-75
2023/04/20 02:21:28;;;;;;;7.40;6.07;;;6.90;99.90;;;;;;4967111;28;20278;-74
2023/04/20 02:23:54;;;;;;;7.00;6.30;;;6.90;99.90;;;;;;4967298;28;20687;-76
2023/04/20 02:26:19;;;;;;;9.30;7.23;;;6.90;99.90;;;;;;4966985;28;20452;-74
2023/04/20 02:28:45;;;;;;;7.97;7.17;;;7.00;99.90;;;;;;4967167;28;20209;-74
2023/04/20 02:31:11;;;;;;;9.33;8.13;;;7.00;99.90;;;;;;4976054;28;20207;-76
2023/04/20 02:33:36;;;;;;;9.60;8.03;;;7.00;99.90;;;;;;4968143;28;20241;-76
2023/04/20 02:36:02;;;;;;;11.03;8.30;;;7.10;99.90;;;;;;4970212;28;20302;-75
2023/04/20 02:38:27;;;;;;;9.27;7.27;;;7.10;99.90;;;;;;4964579;28;20576;-76
2023/04/20 02:40:53;;;;;;;10.67;8.63;;;7.20;99.90;;;;;;4967785;28;20227;-77
2023/04/20 02:43:19;;;;;;;11.70;9.50;;;7.20;99.90;;;;;;4967870;28;20200;-75
2023/04/20 02:45:45;;;;;;;12.83;9.13;;;7.20;99.90;;;;;;4965230;28;20201;-74
2023/04/20 02:48:10;;;;;;;14.33;9.47;;;7.20;99.90;;;;;;4966560;28;20201;-76
2023/04/20 02:50:37;;;;;;;12.40;9.27;;;7.30;99.90;;;;;;4967142;28;20214;-77
2023/04/20 02:53:03;;;;;;;11.07;9.10;;;7.30;99.90;;;;;;4973893;28;20578;-76
2023/04/20 02:55:28;;;;;;;10.10;8.60;;;7.30;99.90;;;;;;4969410;28;20214;-77
2023/04/20 02:57:54;;;;;;;10.13;8.50;;;7.30;99.90;;;;;;4969884;28;20284;-76
2023/04/20 03:00:19;;;;;;;10.87;9.30;;;7.30;99.90;;;;;;4963139;28;21045;-77
2023/04/20 03:02:45;;;;;;;9.47;8.47;;;7.40;99.90;;;;;;4967686;28;20292;-76
2023/04/20 03:05:11;;;;;;;11.23;9.53;;;7.40;99.90;;;;;;4967586;28;20786;-75
2023/04/20 03:07:36;;;;;;;9.67;8.67;;;7.40;99.90;;;;;;4951362;28;20248;-75
2023/04/20 03:10:03;;;;;;;12.40;9.73;;;7.50;99.90;;;;;;4966327;28;20209;-76
2023/04/20 03:12:30;;;;;;;10.70;9.63;;;7.50;99.90;;;;;;4966500;28;20247;-78
2023/04/20 03:14:56;;;;;;;10.30;9.20;;;7.50;99.90;;;;;;4966851;28;20279;-77
2023/04/20 03:17:21;;;;;;;11.47;9.93;;;7.50;99.90;;;;;;4966554;28;20216;-77
2023/04/20 03:19:47;;;;;;;16.30;9.70;;;7.50;99.90;;;;;;4967040;28;20205;-76
2023/04/20 03:22:12;;;;;;;10.70;9.60;;;7.50;99.90;;;;;;4965622;28;20229;-75
2023/04/20 03:24:38;;;;;;;12.63;9.23;;;7.50;99.90;;;;;;4973387;28;20204;-79
2023/04/20 03:27:03;;;;;;;11.40;8.33;;;7.60;99.90;;;;;;4976762;28;20201;-78
2023/04/20 03:29:29;;;;;;;9.47;8.20;;;7.60;99.90;;;;;;4978448;28;20224;-79
2023/04/20 03:31:54;;;;;;;13.20;9.43;;;7.60;99.90;;;;;;4974548;28;20201;-76
2023/04/20 03:34:20;;;;;;;9.67;8.67;;;7.50;99.90;;;;;;4979743;28;20236;-75
2023/04/20 03:36:46;;;;;;;12.60;8.83;;;7.50;99.90;;;;;;4978582;28;20217;-75
2023/04/20 03:39:11;;;;;;;10.10;8.63;;;7.50;99.90;;;;;;4980377;28;21033;-75
2023/04/20 03:41:37;;;;;;;15.67;9.63;;;7.50;99.90;;;;;;4980352;28;20671;-78
2023/04/20 03:44:03;;;;;;;11.60;9.60;;;7.50;99.90;;;;;;4980310;28;20207;-78
2023/04/20 03:46:28;;;;;;;10.10;8.83;;;7.50;99.90;;;;;;4978147;28;20204;-76
2023/04/20 03:48:54;;;;;;;13.73;10.37;;;7.50;99.90;;;;;;4980240;28;20218;-76
2023/04/20 03:51:19;;;;;;;12.77;10.13;;;7.50;99.90;;;;;;4979520;28;20213;-77
2023/04/20 03:53:44;;;;;;;18.50;11.77;;;7.50;99.90;;;;;;4979518;28;20669;-77
2023/04/20 03:56:10;;;;;;;13.50;10.63;;;7.50;99.90;;;;;;4962434;28;20617;-75
2023/04/20 03:58:36;;;;;;;13.10;11.67;;;7.50;99.90;;;;;;4979695;28;20193;-76
2023/04/20 04:01:08;;;;;;;17.03;12.43;;;7.50;99.90;;;;;;4977928;28;20192;-76
2023/04/20 04:03:34;;;;;;;16.50;12.00;;;7.50;99.90;;;;;;4978932;28;20296;-76
2023/04/20 04:06:00;;;;;;;14.60;12.50;;;7.40;99.90;;;;;;4979570;28;20212;-74
2023/04/20 04:08:26;;;;;;;14.40;12.50;;;7.40;99.90;;;;;;4979535;28;20209;-76
2023/04/20 04:10:51;;;;;;;15.00;10.93;;;7.40;99.90;;;;;;4978478;28;20200;-76
2023/04/20 04:13:17;;;;;;;19.43;13.47;;;7.50;99.90;;;;;;4970068;28;20283;-76
2023/04/20 04:15:42;;;;;;;19.97;14.90;;;7.50;99.90;;;;;;4979510;28;20217;-76
2023/04/20 04:18:08;;;;;;;18.17;13.73;;;7.50;99.90;;;;;;4979668;28;20200;-77
2023/04/20 04:20:33;;;;;;;17.07;12.77;;;7.50;99.90;;;;;;4979095;28;20216;-76
2023/04/20 04:22:59;;;;;;;17.90;13.80;;;7.50;99.90;;;;;;4979203;28;20239;-76
2023/04/20 04:25:24;;;;;;;19.93;13.83;;;7.50;99.90;;;;;;4977129;28;20188;-77
2023/04/20 04:27:50;;;;;;;19.53;13.97;;;7.60;99.90;;;;;;4979244;28;20232;-76
2023/04/20 04:30:16;;;;;;;22.27;13.47;;;7.50;99.90;;;;;;4979067;28;21016;-76
2023/04/20 04:32:43;;;;;;;15.30;12.83;;;7.50;99.90;;;;;;4978733;28;20310;-76
2023/04/20 04:35:09;;;;;;;18.13;14.13;;;7.50;99.90;;;;;;4978849;28;20734;-76
2023/04/20 04:37:34;;;;;;;18.97;13.30;;;7.50;99.90;;;;;;4977005;28;20259;-76
2023/04/20 04:40:01;;;;;;;19.93;13.67;;;7.60;99.90;;;;;;4978173;28;20193;-76
2023/04/20 04:42:27;;;;;;;19.93;13.40;;;7.50;99.90;;;;;;4983155;28;20204;-76
2023/04/20 04:44:54;;;;;;;18.60;13.03;;;7.60;99.90;;;;;;4960390;28;20204;-77
2023/04/20 04:47:21;;;;;;;19.80;13.60;;;7.60;99.90;;;;;;4978066;28;20221;-76
2023/04/20 04:49:47;;;;;;;24.13;13.60;;;7.50;99.90;;;;;;4977382;28;20211;-77
2023/04/20 04:52:13;;;;;;;23.57;18.00;;;7.60;99.90;;;;;;4974220;28;20220;-76
2023/04/20 04:54:38;;;;;;;18.70;14.53;;;7.60;99.90;;;;;;4970234;28;20197;-75
2023/04/20 04:57:03;;;;;;;19.60;12.63;;;7.80;99.90;;;;;;4978607;28;20236;-75
2023/04/20 04:59:29;;;;;;;15.83;12.10;;;7.80;99.90;;;;;;4976476;28;20197;-75
2023/04/20 05:01:55;;;;;;;19.23;13.90;;;7.80;99.90;;;;;;4961303;28;20319;-77
2023/04/20 05:04:20;;;;;;;16.90;12.20;;;7.70;99.90;;;;;;4978150;28;20206;-76
2023/04/20 05:06:46;;;;;;;22.83;14.83;;;7.70;99.90;;;;;;4978338;28;20596;-77
2023/04/20 05:09:11;;;;;;;18.97;13.37;;;7.70;99.90;;;;;;4977291;28;20243;-77
2023/04/20 05:11:37;;;;;;;24.30;14.47;;;7.70;99.90;;;;;;4981539;28;20211;-77
2023/04/20 05:14:02;;;;;;;20.40;13.47;;;7.80;99.90;;;;;;4972880;28;20208;-77
2023/04/20 05:16:28;;;;;;;17.43;12.70;;;7.90;99.90;;;;;;4977849;28;20303;-78
2023/04/20 05:18:53;;;;;;;18.77;12.43;;;8.00;99.90;;;;;;4956286;28;20200;-78
2023/04/20 05:21:19;;;;;;;17.87;13.37;;;8.00;99.90;;;;;;4977687;28;20208;-78
2023/04/20 05:23:44;;;;;;;16.97;13.40;;;8.00;99.90;;;;;;4978250;28;20201;-77
2023/04/20 05:26:10;;;;;;;19.77;14.87;;;7.90;99.90;;;;;;4976123;28;20201;-78
2023/04/20 05:28:35;;;;;;;16.70;13.27;;;7.80;99.90;;;;;;4977755;28;20720;-76
2023/04/20 05:31:01;;;;;;;19.60;14.23;;;7.80;99.90;;;;;;4977932;28;20215;-75
2023/04/20 05:33:26;;;;;;;20.93;14.40;;;7.80;99.90;;;;;;4973026;28;20722;-76
2023/04/20 05:35:56;;;;;;;18.17;13.03;;;7.90;99.90;;;;;;4977914;28;20212;-76
2023/04/20 05:38:22;;;;;;;19.60;14.13;;;8.00;99.90;;;;;;4976330;28;20196;-76
2023/04/20 05:40:47;;;;;;;20.27;15.10;;;8.10;99.90;;;;;;4977893;28;20554;-76
2023/04/20 05:43:13;;;;;;;18.67;13.40;;;8.20;99.90;;;;;;4977688;28;20198;-75
2023/04/20 05:45:38;;;;;;;19.00;13.93;;;8.30;99.90;;;;;;4977551;28;20570;-77
2023/04/20 05:48:04;;;;;;;17.77;13.23;;;8.30;99.90;;;;;;4976517;28;20189;-76
2023/04/20 05:50:30;;;;;;;17.70;14.03;;;8.30;99.90;;;;;;4973540;28;20409;-88
2023/04/20 05:52:55;;;;;;;18.83;14.13;;;8.30;99.90;;;;;;4975510;28;20221;-78
2023/04/20 05:55:21;;;;;;;19.00;14.00;;;8.40;99.90;;;;;;4976517;28;20208;-78
2023/04/20 05:57:46;;;;;;;16.73;14.03;;;8.30;99.90;;;;;;4977880;28;20204;-77
2023/04/20 06:00:14;;;;;;;18.90;14.27;;;8.40;99.90;;;;;;4978447;28;20722;-78
2023/04/20 06:02:40;;;;;;;18.67;14.50;;;8.50;99.90;;;;;;4975663;28;20245;-78
2023/04/20 06:05:08;;;;;;;19.93;14.87;;;8.50;99.90;;;;;;4977854;28;20885;-64
2023/04/20 06:07:33;;;;;;;17.70;15.07;;;8.40;99.90;;;;;;4954946;28;20200;-64
2023/04/20 06:10:00;;;;;;;17.97;14.13;;;8.40;99.90;;;;;;4965679;28;20213;-64
2023/04/20 06:12:26;;;;;;;20.87;15.13;;;8.40;99.90;;;;;;4964914;28;20564;-65
2023/04/20 06:14:52;;;;;;;17.97;13.77;;;8.60;99.90;;;;;;4966946;28;20210;-65
2023/04/20 06:17:18;;;;;;;18.67;14.27;;;8.80;99.90;;;;;;4965365;28;20275;-64
2023/04/20 06:19:43;;;;;;;20.83;14.53;;;8.80;99.90;;;;;;4970992;28;20189;-64
2023/04/20 06:22:09;;;;;;;16.30;13.27;;;8.70;99.90;;;;;;4968647;28;20197;-64
2023/04/20 06:24:35;;;;;;;21.67;14.60;;;8.80;99.90;;;;;;4965762;28;20209;-65
2023/04/20 06:27:01;;;;;;;19.73;14.20;;;8.80;99.90;;;;;;4967182;28;20275;-64
2023/04/20 06:29:27;;;;;;;22.53;14.10;;;8.80;99.90;;;;;;4959357;28;20295;-64
2023/04/20 06:31:53;;;;;;;16.80;12.40;;;9.00;99.90;;;;;;4968937;28;20699;-63
2023/04/20 06:34:19;;;;;;;17.20;12.53;;;9.00;99.90;;;;;;4967841;28;20224;-63
2023/04/20 06:36:45;;;;;;;17.70;13.60;;;9.00;99.90;;;;;;4973622;28;20212;-64
2023/04/20 06:39:10;;;;;;;15.90;14.10;;;8.90;99.90;;;;;;4968293;28;20206;-65
2023/04/20 06:41:37;;;;;;;20.17;13.83;;;9.00;99.90;;;;;;4976827;28;20747;-66
2023/04/20 06:44:04;;;;;;;17.53;12.57;;;9.00;99.90;;;;;;4963374;28;20211;-63
2023/04/20 06:46:29;;;;;;;17.77;13.33;;;9.10;99.90;;;;;;4959160;28;20267;-63
2023/04/20 06:48:55;;;;;;;18.20;14.23;;;9.20;99.90;;;;;;4975047;28;20201;-64
2023/04/20 06:51:21;;;;;;;15.43;12.83;;;9.20;99.90;;;;;;4972427;28;20220;-65
2023/04/20 06:53:47;;;;;;;17.97;12.07;;;9.10;99.90;;;;;;4972775;28;20217;-64
2023/04/20 06:56:12;;;;;;;16.83;12.63;;;8.90;99.90;;;;;;4976678;28;20224;-64
2023/04/20 06:58:38;;;;;;;15.63;12.83;;;9.10;99.90;;;;;;4965711;28;20228;-66
2023/04/20 07:01:04;;;;;;;16.50;12.17;;;9.10;99.90;;;;;;4957168;28;20204;-66
2023/04/20 07:03:30;;;;;;;15.57;12.67;;;9.30;99.90;;;;;;4974374;28;20233;-66
2023/04/20 07:05:55;;;;;;;19.67;13.20;;;9.60;99.90;;;;;;4975115;28;20196;-67
2023/04/20 07:08:21;;;;;;;22.40;17.17;;;9.80;99.90;;;;;;4968543;28;20228;-68
2023/04/20 07:10:46;;;;;;;16.37;12.50;;;9.90;99.90;;;;;;4980275;28;20208;-65
2023/04/20 07:13:12;;;;;;;15.30;13.63;;;10.00;99.90;;;;;;4980381;28;20962;-68
2023/04/20 07:15:37;;;;;;;20.07;13.80;;;9.90;99.90;;;;;;4975450;28;20231;-65
2023/04/20 07:18:03;;;;;;;20.67;16.20;;;9.60;99.90;;;;;;4974209;28;20201;-66
2023/04/20 07:20:28;;;;;;;19.73;16.27;;;9.60;99.90;;;;;;4969576;28;20715;-65
2023/04/20 07:22:54;;;;;;;20.00;15.60;;;9.70;99.90;;;;;;4969395;28;20190;-66
2023/04/20 07:25:19;;;;;;;18.73;13.70;;;9.80;99.90;;;;;;4969119;28;20200;-67
2023/04/20 07:27:45;;;;;;;22.73;15.97;;;9.90;99.90;;;;;;4969259;28;20204;-66
2023/04/20 07:30:11;;;;;;;19.33;14.07;;;10.00;99.90;;;;;;4968845;28;20207;-66
2023/04/20 07:32:38;;;;;;;19.57;13.80;;;9.90;99.90;;;;;;4967571;28;20541;-66
2023/04/20 07:35:04;;;;;;;19.30;14.47;;;9.90;99.90;;;;;;4970609;28;20205;-66
2023/04/20 07:37:30;;;;;;;16.93;15.13;;;9.90;99.90;;;;;;4969406;28;20221;-66
2023/04/20 07:39:56;;;;;;;20.30;15.50;;;10.00;99.90;;;;;;4969254;28;20288;-66
2023/04/20 07:42:22;;;;;;;18.93;15.20;;;10.20;99.90;;;;;;4968440;28;20293;-66
2023/04/20 07:44:47;;;;;;;16.43;13.77;;;10.10;99.90;;;;;;4969651;28;20197;-65
2023/04/20 07:47:13;;;;;;;20.57;16.03;;;10.20;99.90;;;;;;4969009;28;20948;-68
2023/04/20 07:49:39;;;;;;;19.53;14.67;;;10.30;99.90;;;;;;4968383;28;20197;-68
2023/04/20 07:52:06;;;;;;;19.57;14.17;;;10.20;99.90;;;;;;4969109;28;20207;-67
2023/04/20 07:54:31;;;;;;;15.43;13.83;;;10.20;99.90;;;;;;4968111;28;21003;-67
2023/04/20 07:56:58;;;;;;;17.40;13.77;;;10.30;99.90;;;;;;4967227;28;20225;-67
2023/04/20 07:59:23;;;;;;;15.77;12.77;;;10.50;99.90;;;;;;4969937;28;20562;-65
2023/04/20 08:01:49;;;;;;;17.10;13.40;;;10.50;99.90;;;;;;4969458;28;20193;-65
2023/04/20 08:04:15;;;;;;;16.00;12.67;;;10.40;99.90;;;;;;4968397;28;20656;-64
2023/04/20 08:06:40;;;;;;;16.40;13.60;;;10.40;99.90;;;;;;4968807;28;20394;-65
2023/04/20 08:09:06;;;;;;;14.30;11.80;;;10.50;99.90;;;;;;4950633;28;20615;-65
2023/04/20 08:11:32;;;;;;;18.97;14.43;;;10.80;99.90;;;;;;4968938;28;20900;-67
2023/04/20 08:13:58;;;;;;;19.20;13.40;;;11.00;99.90;;;;;;4974112;28;20290;-66
2023/04/20 08:16:24;;;;;;;17.40;13.40;;;11.00;99.90;;;;;;4977801;28;20637;-66
2023/04/20 08:18:49;;;;;;;14.97;12.97;;;10.90;99.90;;;;;;4979556;28;20255;-66
2023/04/20 08:21:15;;;;;;;17.67;13.70;;;10.60;99.90;;;;;;4967998;28;20201;-66
2023/04/20 08:23:41;;;;;;;17.23;12.20;;;10.70;99.90;;;;;;4968561;28;20673;-66
2023/04/20 08:26:06;;;;;;;14.27;11.93;;;10.90;99.90;;;;;;4967734;28;20294;-66
2023/04/20 08:28:32;;;;;;;13.37;11.63;;;11.00;99.90;;;;;;4967299;28;20243;-66
2023/04/20 08:30:57;;;;;;;16.30;12.77;;;10.80;99.90;;;;;;4968925;28;20575;-66
2023/04/20 08:33:23;;;;;;;17.50;11.93;;;10.80;99.90;;;;;;4978411;28;20233;-66
2023/04/20 08:35:51;;;;;;;15.00;11.73;;;11.20;99.90;;;;;;4976280;28;20670;-66
2023/04/20 08:38:17;;;;;;;14.03;11.90;;;11.20;99.90;;;;;;4979762;28;20551;-67
2023/04/20 08:40:43;;;;;;;12.17;10.77;;;11.20;99.90;;;;;;4961059;28;20602;-65
2023/04/20 08:43:08;;;;;;;14.97;11.00;;;11.40;99.90;;;;;;4966883;28;20197;-66
2023/04/20 08:45:34;;;;;;;15.43;12.63;;;11.60;99.90;;;;;;4979106;28;20264;-66
2023/04/20 08:48:05;;;;;;;15.10;10.50;;;11.80;99.90;;;;;;4969997;28;20644;-64
2023/04/20 08:50:30;;;;;;;15.67;10.83;;;11.60;99.90;;;;;;4966629;28;20198;-67
2023/04/20 08:52:56;;;;;;;12.97;11.63;;;11.50;99.90;;;;;;4971658;28;20225;-79
2023/04/20 08:55:22;;;;;;;14.53;12.20;;;11.30;99.90;;;;;;4978913;28;20680;-83
2023/04/20 08:57:51;;;;;;;12.30;10.43;;;11.10;99.90;;;;;;4979569;28;20194;-74
2023/04/20 09:00:17;;;;;;;14.20;11.63;;;11.10;99.90;;;;;;4973535;28;20290;-76
2023/04/20 09:02:54;;;;;;;13.90;10.80;;;11.00;99.90;;;;;;4974416;28;20343;-77
2023/04/20 09:05:28;;;;;;;16.27;11.60;;;11.00;99.90;;;;;;4972786;28;20280;-81
2023/04/20 09:07:56;;;;;;;17.53;12.67;;;11.00;99.90;;;;;;4970930;28;20201;-83
2023/04/20 09:10:23;;;;;;;14.10;11.27;;;10.80;99.90;;;;;;4975989;28;20201;-77
2023/04/20 09:12:50;;;;;;;13.93;11.27;;;10.80;99.90;;;;;;4976193;28;20211;-77
2023/04/20 09:15:30;;;;;;;16.50;12.97;;;10.60;99.90;;;;;;4978607;28;20381;-78
2023/04/20 09:17:56;;;;;;;14.17;12.10;;;10.40;99.90;;;;;;4975808;28;20218;-76
2023/04/20 09:20:32;;;;;;;14.20;12.13;;;10.20;99.90;;;;;;4976469;28;20260;-78
2023/04/20 09:23:11;;;;;;;14.30;10.97;;;10.20;99.90;;;;;;4973277;28;20221;-79
2023/04/20 09:25:36;;;;;;;13.90;11.40;;;10.40;99.90;;;;;;4973175;28;20243;-89
2023/04/20 09:28:02;;;;;;;14.20;11.93;;;10.30;99.90;;;;;;4975098;28;20722;-75
2023/04/20 09:30:42;;;;;;;13.67;11.13;;;10.10;99.90;;;;;;4973645;28;20257;-79
2023/04/20 09:33:10;;;;;;;15.67;12.03;;;10.10;99.90;;;;;;4969198;28;20224;-78
2023/04/20 09:35:43;;;;;;;14.87;11.73;;;10.20;99.90;;;;;;4965457;28;20229;-76
2023/04/20 09:38:10;;;;;;;13.60;11.40;;;10.20;99.90;;;;;;4969987;28;20240;-79
2023/04/20 09:40:35;;;;;;;14.60;12.50;;;10.20;99.90;;;;;;4977819;28;20702;-78
2023/04/20 09:43:18;;;;;;;15.47;11.03;;;10.20;99.90;;;;;;4973480;28;20988;-73
2023/04/20 09:45:44;;;;;;;14.90;12.87;;;10.20;99.90;;;;;;4976328;28;20220;-79
2023/04/20 09:48:10;;;;;;;15.13;13.53;;;10.40;99.90;;;;;;4976115;28;20576;-79
2023/04/20 09:50:37;;;;;;;17.30;14.30;;;10.70;99.90;;;;;;4978245;28;20710;-78
2023/04/20 09:53:03;;;;;;;16.03;13.40;;;11.10;99.90;;;;;;4974375;28;20194;-79
2023/04/20 09:55:32;;;;;;;15.70;12.43;;;11.50;99.90;;;;;;4978159;28;20202;-78
2023/04/20 09:58:00;;;;;;;13.40;12.10;;;11.80;99.90;;;;;;4977364;28;20575;-77
2023/04/20 10:00:26;;;;;;;13.83;11.53;;;12.00;99.90;;;;;;4973070;28;20205;-81
2023/04/20 10:02:52;;;;;;;15.23;12.77;;;12.00;99.90;;;;;;4976823;28;20196;-79
2023/04/20 10:05:18;;;;;;;14.20;12.43;;;12.00;99.90;;;;;;4970826;28;20674;-76
2023/04/20 10:07:43;;;;;;;14.67;12.40;;;11.80;99.90;;;;;;4973364;28;20547;-76
2023/04/20 10:10:12;;;;;;;13.87;12.33;;;11.90;99.90;;;;;;4977967;28;20997;-80
2023/04/20 10:12:48;;;;;;;17.10;13.80;;;11.70;99.90;;;;;;4967715;28;20211;-77
2023/04/20 10:15:14;;;;;;;14.93;13.30;;;11.80;99.90;;;;;;4970586;28;20257;-77
2023/04/20 10:17:40;;;;;;;14.23;12.40;;;12.30;99.90;;;;;;4955048;28;20770;-65
2023/04/20 10:20:18;;;;;;;14.53;11.80;;;12.40;99.90;;;;;;4968691;28;20535;-66
2023/04/20 10:22:44;;;;;;;13.67;11.63;;;12.60;99.90;;;;;;4967148;28;20682;-65
2023/04/20 10:25:19;;;;;;;13.60;11.40;;;12.70;99.90;;;;;;4960076;28;20215;-74
2023/04/20 10:27:52;;;;;;;12.20;10.77;;;12.80;99.90;;;;;;4966955;28;20213;-65
2023/04/20 10:30:18;;;;;;;12.53;10.70;;;12.80;99.90;;;;;;4966058;28;20242;-67
2023/04/20 10:32:44;;;;;;;12.07;9.73;;;12.80;99.90;;;;;;4964921;28;20216;-65
2023/04/20 10:35:10;;;;;;;11.40;10.27;;;13.10;99.90;;;;;;4967133;28;20223;-65
2023/04/20 10:37:47;;;;;;;12.10;10.10;;;13.00;99.90;;;;;;4968727;28;21056;-66
2023/04/20 10:40:13;;;;;;;12.00;10.17;;;13.00;99.90;;;;;;4970602;28;20648;-66
2023/04/20 10:42:45;;;;;;;11.87;10.37;;;12.90;99.90;;;;;;4968960;28;20206;-67
2023/04/20 10:45:11;;;;;;;12.33;11.13;;;13.30;99.90;;;;;;4969932;28;20193;-66
2023/04/20 10:47:39;;;;;;;11.33;9.90;;;13.30;99.90;;;;;;4970691;28;20725;-66
2023/04/20 10:50:17;;;;;;;10.50;9.40;;;13.70;99.90;;;;;;4966504;28;20214;-67
2023/04/20 10:52:43;;;;;;;11.33;10.07;;;13.90;99.90;;;;;;4973931;28;20259;-64
2023/04/20 10:55:22;;;;;;;13.57;10.63;;;13.90;99.90;;;;;;4969895;28;20658;-65
2023/04/20 10:57:49;;;;;;;11.43;9.90;;;14.10;99.90;;;;;;4973267;28;20223;-66
2023/04/20 11:00:19;;;;;;;11.13;10.03;;;13.80;99.90;;;;;;4974567;28;20668;-67
2023/04/20 11:02:50;;;;;;;10.73;9.63;;;14.10;99.90;;;;;;4967618;28;20193;-67
2023/04/20 11:05:17;;;;;;;11.40;10.13;;;14.30;99.90;;;;;;4969943;28;20523;-67
2023/04/20 11:08:00;;;;;;;11.10;9.80;;;14.20;99.90;;;;;;4970579;28;20209;-66
2023/04/20 11:10:39;;;;;;;9.80;8.63;;;14.20;99.90;;;;;;4968171;28;20234;-65
2023/04/20 11:13:06;;;;;;;11.63;9.13;;;13.90;99.90;;;;;;4968611;28;20685;-67
2023/04/20 11:15:35;;;;;;;13.10;10.27;;;13.80;99.90;;;;;;4971866;28;20262;-66
2023/04/20 11:18:08;;;;;;;11.37;9.33;;;13.80;99.90;;;;;;4970266;28;20204;-67
2023/04/20 11:20:33;;;;;;;11.10;9.93;;;13.80;99.90;;;;;;4967423;28;20996;-66
2023/04/20 11:22:59;;;;;;;12.07;10.03;;;13.80;99.90;;;;;;4967585;28;20210;-66
2023/04/20 11:25:25;;;;;;;12.57;10.43;;;13.90;99.90;;;;;;4968510;28;20203;-66
2023/04/20 11:27:51;;;;;;;11.17;10.07;;;13.80;99.90;;;;;;4967878;28;20259;-65
2023/04/20 11:30:16;;;;;;;12.27;9.33;;;14.00;99.90;;;;;;4971589;28;20197;-67
2023/04/20 11:32:42;;;;;;;12.17;10.53;;;14.20;99.90;;;;;;4970933;28;20954;-66
2023/04/20 11:35:09;;;;;;;13.30;9.50;;;14.70;99.90;;;;;;4971728;28;20303;-66
2023/04/20 11:37:50;;;;;;;12.13;9.53;;;15.30;99.90;;;;;;4965223;28;20231;-67
2023/04/20 11:40:16;;;;;;;10.33;9.33;;;15.30;99.90;;;;;;4967104;28;20550;-65
2023/04/20 11:42:42;;;;;;;15.13;9.83;;;14.80;99.90;;;;;;4971571;28;20223;-66
2023/04/20 11:45:08;;;;;;;11.13;9.90;;;14.70;99.90;;;;;;4967717;28;20233;-67
2023/04/20 11:47:33;;;;;;;13.00;11.27;;;14.80;99.90;;;;;;4968370;28;20198;-67
2023/04/20 11:49:59;;;;;;;13.90;11.20;;;14.90;99.90;;;;;;4970068;28;20235;-67
2023/04/20 11:52:24;;;;;;;13.90;11.10;;;14.90;99.90;;;;;;4969564;28;20291;-78
2023/04/20 11:54:50;;;;;;;12.47;11.13;;;14.60;99.90;;;;;;4965486;28;20275;-77
2023/04/20 11:57:15;;;;;;;11.63;10.43;;;14.90;99.90;;;;;;4967792;28;20209;-83
2023/04/20 11:59:42;;;;;;;10.87;9.83;;;15.10;99.90;;;;;;4970688;28;20216;-84
2023/04/20 12:02:08;;;;;;;11.33;10.33;;;15.40;99.90;;;;;;4968635;28;20217;-81
2023/04/20 12:04:33;;;;;;;12.03;10.33;;;15.50;99.90;;;;;;4950962;28;20227;-83
2023/04/20 12:07:01;;;;;;;11.77;10.67;;;15.60;99.90;;;;;;4970018;28;20261;-77
2023/04/20 12:09:26;;;;;;;11.00;9.90;;;16.20;99.90;;;;;;4971791;28;20204;-81
2023/04/20 12:11:52;;;;;;;10.63;9.53;;;16.70;99.90;;;;;;4964367;28;20676;-81
2023/04/20 12:14:18;;;;;;;10.60;9.47;;;17.10;99.90;;;;;;4968506;28;20209;-86
2023/04/20 12:16:43;;;;;;;12.03;9.30;;;16.60;99.90;;;;;;4970656;28;20232;-78
2023/04/20 12:19:09;;;;;;;14.57;9.60;;;16.20;99.90;;;;;;4974851;28;20279;-78
2023/04/20 12:21:35;;;;;;;11.77;10.33;;;16.50;99.90;;;;;;4975409;28;20613;-75
2023/04/20 12:24:00;;;;;;;11.40;9.67;;;16.60;99.90;;;;;;4969186;28;20192;-78
2023/04/20 12:26:26;;;;;;;12.13;9.93;;;16.90;99.90;;;;;;4963708;28;20583;-83
2023/04/20 12:28:52;;;;;;;11.03;9.93;;;17.30;99.90;;;;;;4969640;28;20208;-81
2023/04/20 12:31:18;;;;;;;12.40;10.07;;;17.60;99.90;;;;;;4968968;28;20193;-75
2023/04/20 12:33:43;;;;;;;11.60;10.40;;;17.80;99.90;;;;;;4968807;28;20236;-76